createdAt,value
2022-09-03T00:00:02.097Z,13.8
2022-09-03T00:01:02.078Z,13.8
2022-09-03T00:02:01.950Z,13.8
2022-09-03T00:03:02.262Z,13.7
2022-09-03T00:04:02.254Z,13.7
2022-09-03T00:05:02.076Z,13.7
2022-09-03T00:06:02.046Z,13.7
2022-09-03T00:07:01.871Z,13.7
2022-09-03T00:08:01.797Z,13.7
2022-09-03T00:09:01.837Z,13.8
2022-09-03T00:10:01.676Z,13.8
2022-09-03T00:11:01.631Z,13.9
2022-09-03T00:12:01.936Z,14
2022-09-03T00:13:01.853Z,13.7
2022-09-03T00:14:01.927Z,13.8
2022-09-03T00:15:01.829Z,13.8
2022-09-03T00:16:01.854Z,13.8
2022-09-03T00:17:01.985Z,13.8
2022-09-03T00:18:01.906Z,13.7
2022-09-03T00:19:01.704Z,13.5
2022-09-03T00:20:01.732Z,13.5
2022-09-03T00:21:01.709Z,13.5
2022-09-03T00:22:01.500Z,13.7
2022-09-03T00:23:01.476Z,13.8
2022-09-03T00:24:02.400Z,13.6
2022-09-03T00:25:02.314Z,13.6
2022-09-03T00:26:02.148Z,13.8
2022-09-03T00:27:02.010Z,13.9
2022-09-03T00:28:01.934Z,14
2022-09-03T00:29:01.943Z,14
2022-09-03T00:30:01.799Z,14.1
2022-09-03T00:31:01.512Z,14
2022-09-03T00:32:01.807Z,13.9
2022-09-03T00:33:01.697Z,13.9
2022-09-03T00:34:01.503Z,13.8
2022-09-03T00:35:01.480Z,13.9
2022-09-03T00:36:02.412Z,13.8
2022-09-03T00:37:01.526Z,13.8
2022-09-03T00:38:01.631Z,13.7
2022-09-03T00:39:01.677Z,13.4
2022-09-03T00:40:01.469Z,13.3
2022-09-03T00:41:01.658Z,13.3
2022-09-03T00:42:01.498Z,13.1
2022-09-03T00:43:02.439Z,13.1
2022-09-03T00:44:02.244Z,13.2
2022-09-03T00:45:02.227Z,13.4
2022-09-03T00:46:02.045Z,13.6
2022-09-03T00:47:02.361Z,13.6
2022-09-03T00:48:02.213Z,13.7
2022-09-03T00:49:02.028Z,13.6
2022-09-03T00:50:02.019Z,13.1
2022-09-03T00:51:01.831Z,13
2022-09-03T00:52:01.756Z,13.4
2022-09-03T00:53:01.873Z,13.2
2022-09-03T00:54:01.701Z,12.9
2022-09-03T00:55:01.660Z,12.8
2022-09-03T00:56:01.447Z,12.9
2022-09-03T00:57:02.429Z,13.1
2022-09-03T00:58:02.320Z,13.1
2022-09-03T00:59:02.159Z,13.3
2022-09-03T01:00:01.980Z,13.4
2022-09-03T01:01:01.835Z,13.4
2022-09-03T01:02:01.866Z,13.4
2022-09-03T01:03:02.287Z,13.4
2022-09-03T01:04:02.148Z,13.2
2022-09-03T01:05:02.077Z,13.1
2022-09-03T01:06:02.103Z,12.8
2022-09-03T01:07:02.015Z,12.8
2022-09-03T01:08:01.952Z,12.8
2022-09-03T01:09:01.823Z,12.7
2022-09-03T01:10:01.730Z,12.6
2022-09-03T01:11:01.649Z,12.5
2022-09-03T01:12:01.445Z,12.7
2022-09-03T01:13:02.426Z,12.6
2022-09-03T01:14:02.240Z,12.8
2022-09-03T01:15:02.311Z,13
2022-09-03T01:16:02.177Z,13
2022-09-03T01:17:02.254Z,13
2022-09-03T01:18:02.242Z,13.1
2022-09-03T01:19:02.235Z,13.1
2022-09-03T01:20:02.173Z,13.1
2022-09-03T01:21:02.025Z,13.2
2022-09-03T01:22:01.890Z,12.8
2022-09-03T01:23:01.875Z,12.7
2022-09-03T01:24:01.644Z,12.9
2022-09-03T01:25:01.579Z,13
2022-09-03T01:26:01.395Z,12.8
2022-09-03T01:27:02.344Z,12.8
2022-09-03T01:28:02.191Z,12.7
2022-09-03T01:29:02.136Z,12.8
2022-09-03T01:30:01.915Z,12.8
2022-09-03T01:31:01.863Z,12.8
2022-09-03T01:32:02.080Z,12.5
2022-09-03T01:33:02.024Z,12.6
2022-09-03T01:34:01.825Z,12.5
2022-09-03T01:35:01.709Z,12.5
2022-09-03T01:36:01.636Z,12.4
2022-09-03T01:37:01.461Z,12.5
2022-09-03T01:38:02.395Z,12.3
2022-09-03T01:39:02.215Z,12.3
2022-09-03T01:40:01.636Z,12.4
2022-09-03T01:41:01.779Z,12.3
2022-09-03T01:42:01.670Z,12.4
2022-09-03T01:43:01.605Z,12.4
2022-09-03T01:44:01.454Z,12.5
2022-09-03T01:45:02.517Z,12.4
2022-09-03T01:46:01.432Z,12.2
2022-09-03T01:47:01.547Z,12.2
2022-09-03T01:48:01.531Z,12.2
2022-09-03T01:49:01.343Z,12.2
2022-09-03T01:50:02.442Z,12.3
2022-09-03T01:51:02.265Z,12.3
2022-09-03T01:52:02.240Z,12.3
2022-09-03T01:53:02.060Z,12.3
2022-09-03T01:54:02.080Z,12.3
2022-09-03T01:55:01.890Z,12.2
2022-09-03T01:56:01.865Z,12.3
2022-09-03T01:57:01.876Z,12.2
2022-09-03T01:58:01.786Z,12.1
2022-09-03T01:59:01.838Z,12.2
2022-09-03T02:00:01.879Z,12.3
2022-09-03T02:01:01.707Z,12.2
2022-09-03T02:02:02.081Z,12.1
2022-09-03T02:03:02.268Z,12.1
2022-09-03T02:04:01.376Z,12.1
2022-09-03T02:05:02.354Z,12
2022-09-03T02:06:02.184Z,12.2
2022-09-03T02:07:02.095Z,12
2022-09-03T02:08:01.865Z,12.2
2022-09-03T02:09:01.419Z,12.2
2022-09-03T02:10:01.513Z,12.2
2022-09-03T02:11:01.397Z,12.3
2022-09-03T02:12:02.299Z,12.1
2022-09-03T02:13:02.104Z,12.2
2022-09-03T02:14:02.083Z,12.1
2022-09-03T02:15:01.915Z,12.3
2022-09-03T02:16:01.826Z,12.2
2022-09-03T02:17:02.069Z,12.2
2022-09-03T02:18:01.998Z,12.2
2022-09-03T02:19:01.770Z,12.2
2022-09-03T02:20:01.713Z,12.2
2022-09-03T02:21:01.615Z,12.1
2022-09-03T02:22:01.439Z,12
2022-09-03T02:23:02.433Z,12.1
2022-09-03T02:24:02.252Z,12.1
2022-09-03T02:25:02.185Z,12.1
2022-09-03T02:26:01.959Z,12
2022-09-03T02:27:01.881Z,12
2022-09-03T02:28:01.841Z,11.9
2022-09-03T02:29:01.696Z,12
2022-09-03T02:30:01.582Z,12.1
2022-09-03T02:31:01.442Z,12
2022-09-03T02:32:01.700Z,12.2
2022-09-03T02:33:01.596Z,12.2
2022-09-03T02:34:01.389Z,11.9
2022-09-03T02:35:02.364Z,12.1
2022-09-03T02:36:02.214Z,12
2022-09-03T02:37:02.147Z,12.2
2022-09-03T02:38:01.937Z,12.2
2022-09-03T02:39:01.865Z,12.2
2022-09-03T02:40:01.862Z,12.2
2022-09-03T02:41:02.147Z,12.4
2022-09-03T02:42:02.045Z,12.3
2022-09-03T02:43:02.017Z,12.4
2022-09-03T02:44:01.781Z,12.5
2022-09-03T02:45:01.700Z,12.4
2022-09-03T02:46:01.656Z,12.3
2022-09-03T02:47:01.592Z,12.2
2022-09-03T02:48:01.553Z,12.3
2022-09-03T02:49:01.362Z,12.2
2022-09-03T02:50:02.336Z,12
2022-09-03T02:51:02.110Z,12
2022-09-03T02:52:02.300Z,12
2022-09-03T02:53:02.252Z,11.8
2022-09-03T02:54:02.058Z,12
2022-09-03T02:55:02.060Z,11.9
2022-09-03T02:56:01.872Z,12
2022-09-03T02:57:01.833Z,11.8
2022-09-03T02:58:01.862Z,11.8
2022-09-03T02:59:01.666Z,11.7
2022-09-03T03:00:01.595Z,11.6
2022-09-03T03:01:01.508Z,11.6
2022-09-03T03:02:01.645Z,11.7
2022-09-03T03:03:02.075Z,11.7
2022-09-03T03:04:01.889Z,11.7
2022-09-03T03:05:01.750Z,11.6
2022-09-03T03:06:01.741Z,11.8
2022-09-03T03:07:01.540Z,11.6
2022-09-03T03:08:01.490Z,11.6
2022-09-03T03:09:02.399Z,11.5
2022-09-03T03:10:02.208Z,11.6
2022-09-03T03:11:02.187Z,11.5
2022-09-03T03:12:02.020Z,11.4
2022-09-03T03:13:01.940Z,11.6
2022-09-03T03:14:01.908Z,11.5
2022-09-03T03:15:01.683Z,11.5
2022-09-03T03:16:01.632Z,11.5
2022-09-03T03:17:01.615Z,11.3
2022-09-03T03:18:01.747Z,11.4
2022-09-03T03:19:01.671Z,11.5
2022-09-03T03:20:01.521Z,11.6
2022-09-03T03:21:01.465Z,11.6
2022-09-03T03:22:02.392Z,11.5
2022-09-03T03:23:02.218Z,11.4
2022-09-03T03:24:02.192Z,11.4
2022-09-03T03:25:02.051Z,11.4
2022-09-03T03:26:01.968Z,11.4
2022-09-03T03:27:01.879Z,11.4
2022-09-03T03:28:01.753Z,11.5
2022-09-03T03:29:01.625Z,11.5
2022-09-03T03:30:01.588Z,11.6
2022-09-03T03:31:01.459Z,11.4
2022-09-03T03:32:01.731Z,11.5
2022-09-03T03:33:01.652Z,11.4
2022-09-03T03:34:01.436Z,11.5
2022-09-03T03:35:02.423Z,11.4
2022-09-03T03:36:02.244Z,11.4
2022-09-03T03:37:02.141Z,11.5
2022-09-03T03:38:01.951Z,11.5
2022-09-03T03:39:01.874Z,11.6
2022-09-03T03:40:01.926Z,11.5
2022-09-03T03:41:02.025Z,11.3
2022-09-03T03:42:01.999Z,11.3
2022-09-03T03:43:01.966Z,11.2
2022-09-03T03:44:01.771Z,11.2
2022-09-03T03:45:01.702Z,11.2
2022-09-03T03:46:01.661Z,11.4
2022-09-03T03:47:01.882Z,11.4
2022-09-03T03:48:01.782Z,11.4
2022-09-03T03:49:01.952Z,11.4
2022-09-03T03:50:01.758Z,11.5
2022-09-03T03:51:01.649Z,11.4
2022-09-03T03:52:01.583Z,11.5
2022-09-03T03:53:01.702Z,11.4
2022-09-03T03:54:04.941Z,11.3
2022-09-03T03:55:01.479Z,11.4
2022-09-03T03:56:01.467Z,11.4
2022-09-03T03:57:02.355Z,11.3
2022-09-03T03:58:02.162Z,11.4
2022-09-03T03:59:02.413Z,11.3
2022-09-03T04:00:02.255Z,11.4
2022-09-03T04:01:02.286Z,11.3
2022-09-03T04:02:02.302Z,11.2
2022-09-03T04:03:02.402Z,11.2
2022-09-03T04:04:02.222Z,11.2
2022-09-03T04:05:02.193Z,11.1
2022-09-03T04:06:01.963Z,11.2
2022-09-03T04:07:01.928Z,11.2
2022-09-03T04:08:01.854Z,11.2
2022-09-03T04:09:01.729Z,11.1
2022-09-03T04:10:01.609Z,11.2
2022-09-03T04:11:01.423Z,11.2
2022-09-03T04:12:02.492Z,11.1
2022-09-03T04:13:02.331Z,11.1
2022-09-03T04:14:02.321Z,11
2022-09-03T04:15:02.132Z,11.1
2022-09-03T04:16:02.105Z,11.1
2022-09-03T04:17:01.905Z,11.2
2022-09-03T04:18:01.905Z,11.2
2022-09-03T04:19:01.936Z,11.3
2022-09-03T04:20:01.715Z,11.4
2022-09-03T04:21:01.680Z,11.1
2022-09-03T04:22:01.592Z,11.2
2022-09-03T04:23:01.399Z,11.1
2022-09-03T04:24:02.365Z,11.1
2022-09-03T04:25:02.254Z,11.1
2022-09-03T04:26:02.179Z,11.2
2022-09-03T04:27:02.366Z,11.3
2022-09-03T04:28:02.193Z,11.3
2022-09-03T04:29:02.016Z,11.2
2022-09-03T04:30:02.062Z,11.1
2022-09-03T04:31:02.156Z,11.2
2022-09-03T04:32:01.859Z,11.3
2022-09-03T04:33:02.086Z,11.4
2022-09-03T04:34:02.055Z,11.3
2022-09-03T04:35:01.866Z,11.4
2022-09-03T04:36:01.825Z,11.4
2022-09-03T04:37:01.736Z,11.4
2022-09-03T04:38:01.576Z,11.4
2022-09-03T04:39:01.488Z,11.3
2022-09-03T04:40:01.387Z,11.5
2022-09-03T04:41:01.542Z,11.4
2022-09-03T04:42:01.411Z,11.4
2022-09-03T04:43:02.012Z,11.5
2022-09-03T04:44:01.840Z,11.5
2022-09-03T04:45:01.755Z,11.5
2022-09-03T04:46:01.739Z,11.6
2022-09-03T04:47:02.083Z,11.7
2022-09-03T04:48:02.003Z,11.7
2022-09-03T04:49:01.918Z,11.7
2022-09-03T04:50:01.867Z,11.8
2022-09-03T04:51:01.789Z,11.6
2022-09-03T04:52:01.733Z,11.8
2022-09-03T04:53:04.608Z,11.8
2022-09-03T04:54:01.980Z,11.9
2022-09-03T04:55:02.132Z,11.9
2022-09-03T04:56:01.902Z,12
2022-09-03T04:57:01.856Z,12
2022-09-03T04:58:01.849Z,12.1
2022-09-03T04:59:01.761Z,12.1
2022-09-03T05:00:01.568Z,12.1
2022-09-03T05:01:01.566Z,12.1
2022-09-03T05:02:01.695Z,11.9
2022-09-03T05:03:01.750Z,11.8
2022-09-03T05:04:01.680Z,12
2022-09-03T05:05:01.535Z,12.1
2022-09-03T05:06:01.434Z,12.1
2022-09-03T05:07:02.319Z,12.1
2022-09-03T05:08:02.136Z,12
2022-09-03T05:09:02.106Z,12.1
2022-09-03T05:10:01.934Z,12.1
2022-09-03T05:11:01.799Z,12.2
2022-09-03T05:12:01.774Z,12.3
2022-09-03T05:13:01.592Z,12.3
2022-09-03T05:14:01.540Z,12.4
2022-09-03T05:15:01.352Z,12.4
2022-09-03T05:16:02.341Z,12.4
2022-09-03T05:17:02.254Z,12.4
2022-09-03T05:18:02.240Z,12.5
2022-09-03T05:19:02.060Z,12.5
2022-09-03T05:20:01.987Z,12.5
2022-09-03T05:21:01.910Z,12.6
2022-09-03T05:22:01.769Z,12.5
2022-09-03T05:23:01.706Z,12.7
2022-09-03T05:24:01.527Z,12.6
2022-09-03T05:25:01.490Z,12.7
2022-09-03T05:26:02.409Z,12.8
2022-09-03T05:27:02.216Z,12.9
2022-09-03T05:28:02.204Z,12.8
2022-09-03T05:29:02.025Z,12.9
2022-09-03T05:30:01.981Z,12.7
2022-09-03T05:31:01.886Z,12.8
2022-09-03T05:32:01.935Z,12.9
2022-09-03T05:33:02.070Z,13
2022-09-03T05:34:01.995Z,13
2022-09-03T05:35:01.843Z,13
2022-09-03T05:36:01.701Z,12.9
2022-09-03T05:37:01.624Z,13
2022-09-03T05:38:01.412Z,13.1
2022-09-03T05:39:02.398Z,13.2
2022-09-03T05:40:02.266Z,13.1
2022-09-03T05:41:01.456Z,13.2
2022-09-03T05:42:02.327Z,13.3
2022-09-03T05:43:05.359Z,13.4
2022-09-03T05:44:01.372Z,13.5
2022-09-03T05:45:02.311Z,13.5
2022-09-03T05:46:02.129Z,13.3
2022-09-03T05:47:02.033Z,13.5
2022-09-03T05:48:01.974Z,13.6
2022-09-03T05:49:01.808Z,13.6
2022-09-03T05:50:02.031Z,13.6
2022-09-03T05:51:01.972Z,13.8
2022-09-03T05:52:01.784Z,13.8
2022-09-03T05:53:01.714Z,13.9
2022-09-03T05:54:01.639Z,13.9
2022-09-03T05:55:01.449Z,13.9
2022-09-03T05:56:02.287Z,14
2022-09-03T05:57:02.261Z,14
2022-09-03T05:58:02.092Z,14
2022-09-03T05:59:02.298Z,14
2022-09-03T06:00:02.358Z,14
2022-09-03T06:01:02.189Z,14.1
2022-09-03T06:02:02.351Z,14.1
2022-09-03T06:03:01.862Z,14.2
2022-09-03T06:04:02.114Z,14.2
2022-09-03T06:05:02.079Z,14.2
2022-09-03T06:06:01.995Z,14.3
2022-09-03T06:07:01.805Z,14.4
2022-09-03T06:08:01.723Z,14.4
2022-09-03T06:09:01.638Z,14.3
2022-09-03T06:10:01.426Z,14.4
2022-09-03T06:11:02.428Z,14.5
2022-09-03T06:12:03.905Z,14.5
2022-09-03T06:13:01.641Z,14.4
2022-09-03T06:14:01.604Z,14.6
2022-09-03T06:15:01.451Z,14.7
2022-09-03T06:16:02.464Z,14.7
2022-09-03T06:17:01.618Z,14.6
2022-09-03T06:18:01.627Z,14.7
2022-09-03T06:19:01.384Z,14.6
2022-09-03T06:20:02.375Z,14.7
2022-09-03T06:21:02.209Z,14.7
2022-09-03T06:22:02.135Z,14.6
2022-09-03T06:23:01.947Z,14.7
2022-09-03T06:24:01.816Z,14.7
2022-09-03T06:25:01.969Z,14.8
2022-09-03T06:26:05.224Z,14.8
2022-09-03T06:27:01.474Z,14.8
2022-09-03T06:28:01.751Z,14.9
2022-09-03T06:29:01.685Z,15
2022-09-03T06:30:01.476Z,15.1
2022-09-03T06:31:01.505Z,15.1
2022-09-03T06:32:01.567Z,15.1
2022-09-03T06:33:01.690Z,15.2
2022-09-03T06:34:04.120Z,15.3
2022-09-03T06:35:02.263Z,15.3
2022-09-03T06:36:03.840Z,15.5
2022-09-03T06:37:01.593Z,15.6
2022-09-03T06:38:01.528Z,15.7
2022-09-03T06:39:01.405Z,15.7
2022-09-03T06:40:02.420Z,15.7
2022-09-03T06:41:01.496Z,15.6
2022-09-03T06:42:01.465Z,16
2022-09-03T06:43:02.377Z,16
2022-09-03T06:44:02.292Z,15.9
2022-09-03T06:45:02.151Z,15.8
2022-09-03T06:46:01.977Z,15.9
2022-09-03T06:47:01.473Z,16
2022-09-03T06:48:02.410Z,16.6
2022-09-03T06:49:02.249Z,17.2
2022-09-03T06:50:02.177Z,17.5
2022-09-03T06:51:01.997Z,16.9
2022-09-03T06:52:01.958Z,17
2022-09-03T06:53:01.775Z,17.4
2022-09-03T06:54:01.633Z,17.2
2022-09-03T06:55:01.598Z,16.9
2022-09-03T06:56:01.412Z,16.9
2022-09-03T06:57:02.352Z,17
2022-09-03T06:58:02.192Z,16.8
2022-09-03T06:59:01.616Z,16.8
2022-09-03T07:00:01.415Z,16.8
2022-09-03T07:01:02.442Z,16.9
2022-09-03T07:02:01.661Z,17.1
2022-09-03T07:03:02.022Z,16.8
2022-09-03T07:04:01.773Z,16.9
2022-09-03T07:05:01.676Z,16.9
2022-09-03T07:06:01.616Z,16.8
2022-09-03T07:07:01.422Z,16.6
2022-09-03T07:08:02.362Z,16.7
2022-09-03T07:09:02.179Z,16.6
2022-09-03T07:10:02.101Z,16.4
2022-09-03T07:11:01.936Z,16.3
2022-09-03T07:12:01.929Z,16.4
2022-09-03T07:13:01.860Z,16.5
2022-09-03T07:14:01.828Z,16.5
2022-09-03T07:15:01.675Z,16.4
2022-09-03T07:16:01.629Z,16.4
2022-09-03T07:17:01.634Z,16.3
2022-09-03T07:18:01.677Z,16.4
2022-09-03T07:19:01.615Z,16.3
2022-09-03T07:20:01.366Z,16.4
2022-09-03T07:21:02.359Z,16.5
2022-09-03T07:22:02.188Z,16.4
2022-09-03T07:23:02.146Z,16.4
2022-09-03T07:24:02.025Z,16.4
2022-09-03T07:25:01.961Z,16.3
2022-09-03T07:26:01.931Z,16.4
2022-09-03T07:27:01.738Z,16.4
2022-09-03T07:28:01.638Z,16.5
2022-09-03T07:29:01.569Z,16.6
2022-09-03T07:30:01.348Z,16.6
2022-09-03T07:31:02.364Z,16.7
2022-09-03T07:32:02.310Z,16.7
2022-09-03T07:33:02.352Z,16.8
2022-09-03T07:34:02.133Z,16.8
2022-09-03T07:35:01.776Z,16.6
2022-09-03T07:36:01.759Z,16.9
2022-09-03T07:37:01.771Z,16.9
2022-09-03T07:38:02.149Z,16.7
2022-09-03T07:39:02.055Z,16.8
2022-09-03T07:40:02.066Z,17
2022-09-03T07:41:02.039Z,17.1
2022-09-03T07:42:02.021Z,17.3
2022-09-03T07:43:01.852Z,17.2
2022-09-03T07:44:01.770Z,17.3
2022-09-03T07:45:01.695Z,17.3
2022-09-03T07:46:01.546Z,17.2
2022-09-03T07:47:01.705Z,17.4
2022-09-03T07:48:01.727Z,17.4
2022-09-03T07:49:01.497Z,17.5
2022-09-03T07:50:01.428Z,17.5
2022-09-03T07:51:02.371Z,17.3
2022-09-03T07:52:02.190Z,17.4
2022-09-03T07:53:02.144Z,17.6
2022-09-03T07:54:01.955Z,17.7
2022-09-03T07:55:01.821Z,17.8
2022-09-03T07:56:01.739Z,17.8
2022-09-03T07:57:01.604Z,17.7
2022-09-03T07:58:02.037Z,17.5
2022-09-03T07:59:01.992Z,17.3
2022-09-03T08:00:01.885Z,17.7
2022-09-03T08:01:01.847Z,17.6
2022-09-03T08:02:02.023Z,17.8
2022-09-03T08:03:02.015Z,17.8
2022-09-03T08:04:01.898Z,17.9
2022-09-03T08:05:02.292Z,17.8
2022-09-03T08:06:02.234Z,17.8
2022-09-03T08:07:02.047Z,18.1
2022-09-03T08:08:01.947Z,18.2
2022-09-03T08:09:04.818Z,18.2
2022-09-03T08:10:01.405Z,18.5
2022-09-03T08:11:02.394Z,18.2
2022-09-03T08:12:02.208Z,18
2022-09-03T08:13:02.174Z,18.3
2022-09-03T08:14:02.025Z,18.3
2022-09-03T08:15:01.886Z,18.3
2022-09-03T08:16:01.882Z,18.4
2022-09-03T08:17:01.860Z,18.3
2022-09-03T08:18:03.599Z,18.5
2022-09-03T08:19:01.423Z,18.4
2022-09-03T08:20:02.379Z,18.5
2022-09-03T08:21:02.211Z,18.5
2022-09-03T08:22:02.134Z,18.9
2022-09-03T08:23:01.970Z,18.8
2022-09-03T08:24:02.018Z,18.5
2022-09-03T08:25:01.885Z,17.9
2022-09-03T08:26:01.703Z,18.4
2022-09-03T08:27:01.646Z,18.1
2022-09-03T08:28:01.444Z,18.7
2022-09-03T08:29:02.393Z,19
2022-09-03T08:30:02.228Z,19
2022-09-03T08:31:02.190Z,19
2022-09-03T08:32:05.076Z,18.8
2022-09-03T08:33:01.391Z,18.5
2022-09-03T08:34:02.379Z,18.1
2022-09-03T08:35:02.214Z,17.9
2022-09-03T08:36:02.152Z,18.3
2022-09-03T08:37:01.969Z,18.3
2022-09-03T08:38:01.851Z,18.5
2022-09-03T08:39:01.768Z,18.9
2022-09-03T08:40:01.684Z,19.2
2022-09-03T08:41:01.716Z,19.4
2022-09-03T08:42:01.663Z,19.7
2022-09-03T08:43:04.925Z,19.4
2022-09-03T08:44:02.960Z,19.2
2022-09-03T08:45:02.446Z,19.5
2022-09-03T08:46:02.311Z,19.4
2022-09-03T08:47:01.386Z,19.7
2022-09-03T08:48:02.369Z,19.6
2022-09-03T08:49:02.185Z,19.4
2022-09-03T08:50:02.137Z,19.5
2022-09-03T08:51:01.894Z,19.4
2022-09-03T08:52:01.914Z,19.7
2022-09-03T08:53:01.834Z,19.6
2022-09-03T08:54:01.668Z,19.5
2022-09-03T08:55:01.565Z,19.3
2022-09-03T08:56:01.397Z,19.3
2022-09-03T08:57:02.376Z,19.5
2022-09-03T08:58:02.195Z,19.7
2022-09-03T08:59:02.158Z,19.9
2022-09-03T09:00:01.950Z,20
2022-09-03T09:01:01.888Z,20.3
2022-09-03T09:02:01.885Z,20.1
2022-09-03T09:03:02.272Z,20.2
2022-09-03T09:04:02.329Z,20.2
2022-09-03T09:05:02.299Z,20.3
2022-09-03T09:06:01.915Z,20.5
2022-09-03T09:07:01.785Z,20.6
2022-09-03T09:08:01.575Z,20.7
2022-09-03T09:09:01.526Z,20.2
2022-09-03T09:10:01.317Z,20.3
2022-09-03T09:11:02.279Z,20
2022-09-03T09:12:02.120Z,20.2
2022-09-03T09:13:02.104Z,20.4
2022-09-03T09:14:01.926Z,20.2
2022-09-03T09:15:01.787Z,20.4
2022-09-03T09:16:01.792Z,20.2
2022-09-03T09:17:01.680Z,20
2022-09-03T09:18:01.605Z,20
2022-09-03T09:19:01.416Z,20.2
2022-09-03T09:20:02.388Z,19.9
2022-09-03T09:21:02.219Z,19.7
2022-09-03T09:22:02.165Z,19.9
2022-09-03T09:23:01.965Z,19.9
2022-09-03T09:24:01.859Z,19.8
2022-09-03T09:25:01.858Z,19.9
2022-09-03T09:26:01.744Z,19.8
2022-09-03T09:27:01.647Z,19.6
2022-09-03T09:28:01.578Z,19.9
2022-09-03T09:29:01.378Z,19.8
2022-09-03T09:30:01.848Z,19
2022-09-03T09:31:02.392Z,19.4
2022-09-03T09:32:01.801Z,19.7
2022-09-03T09:33:01.700Z,19.8
2022-09-03T09:34:01.527Z,19.6
2022-09-03T09:35:01.456Z,19.8
2022-09-03T09:36:02.373Z,19.6
2022-09-03T09:37:02.236Z,19.4
2022-09-03T09:38:01.386Z,19.5
2022-09-03T09:39:02.338Z,19.2
2022-09-03T09:40:02.199Z,19.1
2022-09-03T09:41:02.313Z,19.2
2022-09-03T09:42:02.081Z,18.9
2022-09-03T09:43:02.022Z,18.7
2022-09-03T09:44:01.554Z,19
2022-09-03T09:45:01.491Z,18.6
2022-09-03T09:46:02.438Z,18.7
2022-09-03T09:47:02.122Z,18.6
2022-09-03T09:48:02.086Z,18.6
2022-09-03T09:49:01.950Z,18.9
2022-09-03T09:50:01.873Z,18.9
2022-09-03T09:51:01.765Z,18.7
2022-09-03T09:52:01.564Z,18.7
2022-09-03T09:53:01.489Z,18.4
2022-09-03T09:54:02.390Z,18.6
2022-09-03T09:55:02.208Z,18.6
2022-09-03T09:56:02.162Z,18.8
2022-09-03T09:57:01.961Z,18.6
2022-09-03T09:58:01.868Z,18.5
2022-09-03T09:59:01.824Z,18.4
2022-09-03T10:00:02.602Z,18.4
2022-09-03T10:01:01.432Z,18.4
2022-09-03T10:02:01.590Z,18.4
2022-09-03T10:03:01.769Z,18.4
2022-09-03T10:04:01.777Z,18.5
2022-09-03T10:05:01.675Z,18.3
2022-09-03T10:06:01.575Z,18.3
2022-09-03T10:07:01.363Z,18.2
2022-09-03T10:08:02.361Z,18.4
2022-09-03T10:09:02.183Z,18.4
2022-09-03T10:10:02.163Z,18.3
2022-09-03T10:11:01.958Z,18.1
2022-09-03T10:12:01.934Z,18.3
2022-09-03T10:13:01.868Z,18.5
2022-09-03T10:14:01.682Z,18.5
2022-09-03T10:15:01.616Z,18.5
2022-09-03T10:16:01.476Z,18.8
2022-09-03T10:17:01.747Z,18.8
2022-09-03T10:18:01.701Z,18.8
2022-09-03T10:19:01.466Z,18.7
2022-09-03T10:20:01.458Z,18.5
2022-09-03T10:21:02.382Z,18.7
2022-09-03T10:22:02.212Z,18.5
2022-09-03T10:23:02.160Z,18.3
2022-09-03T10:24:06.252Z,18.5
2022-09-03T10:25:01.441Z,18.6
2022-09-03T10:26:02.380Z,18.5
2022-09-03T10:27:02.181Z,18.3
2022-09-03T10:28:02.164Z,18.3
2022-09-03T10:29:02.026Z,18.6
2022-09-03T10:30:01.963Z,18.4
2022-09-03T10:31:02.031Z,18.3
2022-09-03T10:32:01.938Z,18.2
2022-09-03T10:33:01.902Z,18.3
2022-09-03T10:34:01.846Z,18.2
2022-09-03T10:35:01.621Z,18.2
2022-09-03T10:36:01.564Z,18.3
2022-09-03T10:37:01.363Z,18.4
2022-09-03T10:38:02.344Z,18.1
2022-09-03T10:39:02.198Z,18.2
2022-09-03T10:40:02.217Z,18.3
2022-09-03T10:41:02.298Z,18.3
2022-09-03T10:42:02.125Z,18.3
2022-09-03T10:43:02.034Z,18.4
2022-09-03T10:44:01.902Z,18.3
2022-09-03T10:45:01.865Z,18.3
2022-09-03T10:46:01.800Z,18.4
2022-09-03T10:47:01.655Z,18.3
2022-09-03T10:48:01.600Z,18.3
2022-09-03T10:49:01.431Z,18.4
2022-09-03T10:50:02.388Z,18.4
2022-09-03T10:51:02.220Z,18.4
2022-09-03T10:52:02.190Z,18.5
2022-09-03T10:53:02.008Z,18.4
2022-09-03T10:54:01.930Z,18.3
2022-09-03T10:55:01.849Z,18.3
2022-09-03T10:56:01.732Z,18.3
2022-09-03T10:57:01.643Z,18.2
2022-09-03T10:58:01.539Z,18.3
2022-09-03T10:59:01.359Z,18.5
2022-09-03T11:00:02.322Z,18.5
2022-09-03T11:01:02.157Z,18.4
2022-09-03T11:02:01.370Z,18.4
2022-09-03T11:03:02.352Z,18.9
2022-09-03T11:04:01.393Z,19.1
2022-09-03T11:05:02.385Z,19
2022-09-03T11:06:02.231Z,19.3
2022-09-03T11:07:02.214Z,19.3
2022-09-03T11:08:01.991Z,19.3
2022-09-03T11:09:05.911Z,19.6
2022-09-03T11:10:01.466Z,19.9
2022-09-03T11:11:01.452Z,19.8
2022-09-03T11:12:02.373Z,20.1
2022-09-03T11:13:02.211Z,20.2
2022-09-03T11:14:02.158Z,20
2022-09-03T11:15:01.997Z,19.7
2022-09-03T11:16:01.980Z,19.8
2022-09-03T11:17:02.080Z,19.9
2022-09-03T11:18:01.983Z,19.9
2022-09-03T11:19:01.937Z,19.8
2022-09-03T11:20:01.716Z,19.5
2022-09-03T11:21:01.688Z,19.6
2022-09-03T11:22:01.549Z,19.8
2022-09-03T11:23:01.517Z,19.8
2022-09-03T11:24:01.837Z,19.6
2022-09-03T11:25:01.767Z,19.7
2022-09-03T11:26:01.675Z,19.9
2022-09-03T11:27:01.480Z,19.8
2022-09-03T11:28:01.431Z,20.1
2022-09-03T11:29:02.331Z,20.4
2022-09-03T11:30:02.246Z,20.3
2022-09-03T11:31:02.074Z,20.2
2022-09-03T11:32:02.316Z,20
2022-09-03T11:33:02.136Z,20.2
2022-09-03T11:34:02.247Z,20.4
2022-09-03T11:35:02.111Z,20.3
2022-09-03T11:36:02.146Z,20.1
2022-09-03T11:37:02.015Z,20
2022-09-03T11:38:01.848Z,20
2022-09-03T11:39:01.759Z,20
2022-09-03T11:40:01.797Z,20
2022-09-03T11:41:01.870Z,19.9
2022-09-03T11:42:01.779Z,19.8
2022-09-03T11:43:01.705Z,19.9
2022-09-03T11:44:04.544Z,20
2022-09-03T11:45:01.609Z,20
2022-09-03T11:46:01.590Z,19.9
2022-09-03T11:47:01.812Z,19.8
2022-09-03T11:48:01.730Z,19.8
2022-09-03T11:49:01.697Z,20.1
2022-09-03T11:50:01.512Z,20.4
2022-09-03T11:51:01.470Z,20.4
2022-09-03T11:52:02.391Z,20.2
2022-09-03T11:53:02.238Z,19.9
2022-09-03T11:54:01.881Z,20.2
2022-09-03T11:55:01.949Z,20
2022-09-03T11:56:02.365Z,19.9
2022-09-03T11:57:01.489Z,19.7
2022-09-03T11:58:02.417Z,19.6
2022-09-03T11:59:02.232Z,19.6
2022-09-03T12:00:02.179Z,19.5
2022-09-03T12:01:01.969Z,19.2
2022-09-03T12:02:01.901Z,18.9
2022-09-03T12:03:02.065Z,19
2022-09-03T12:04:02.024Z,18.8
2022-09-03T12:05:01.939Z,19
2022-09-03T12:06:02.127Z,18.9
2022-09-03T12:07:01.927Z,18.9
2022-09-03T12:08:05.468Z,18.8
2022-09-03T12:09:01.740Z,18.8
2022-09-03T12:10:01.681Z,18.8
2022-09-03T12:11:01.510Z,18.6
2022-09-03T12:12:01.473Z,18.6
2022-09-03T12:13:02.388Z,18.4
2022-09-03T12:14:02.192Z,18.3
2022-09-03T12:15:02.187Z,18.1
2022-09-03T12:16:02.020Z,18.1
2022-09-03T12:17:01.948Z,18.4
2022-09-03T12:18:01.900Z,18.2
2022-09-03T12:19:01.700Z,18.2
2022-09-03T12:20:01.678Z,17.9
2022-09-03T12:21:01.507Z,18.1
2022-09-03T12:22:02.435Z,18.1
2022-09-03T12:23:02.256Z,18.1
2022-09-03T12:24:02.177Z,18.1
2022-09-03T12:25:01.999Z,18.3
2022-09-03T12:26:01.890Z,18.4
2022-09-03T12:27:01.847Z,18.4
2022-09-03T12:28:01.747Z,18.2
2022-09-03T12:29:01.625Z,18.2
2022-09-03T12:30:01.485Z,18.2
2022-09-03T12:31:01.518Z,18.2
2022-09-03T12:32:01.605Z,18.2
2022-09-03T12:33:01.564Z,18.2
2022-09-03T12:34:01.366Z,18
2022-09-03T12:35:02.339Z,18.1
2022-09-03T12:36:02.149Z,18.1
2022-09-03T12:37:02.140Z,18
2022-09-03T12:38:07.305Z,18
2022-09-03T12:39:11.288Z,18
2022-09-03T12:40:07.221Z,18
2022-09-03T12:41:27.807Z,18
2022-09-03T12:42:02.332Z,17.9
2022-09-03T12:44:01.945Z,18
2022-09-03T12:45:01.933Z,18
2022-09-03T12:46:12.420Z,18
2022-09-03T12:48:01.424Z,17.9
2022-09-03T12:49:30.875Z,17.9
2022-09-03T12:50:02.066Z,17.8
2022-09-03T12:51:47.465Z,17.9
2022-09-03T12:52:05.723Z,18
2022-09-03T12:53:02.405Z,18
2022-09-03T12:54:02.225Z,17.9
2022-09-03T12:55:02.197Z,18
2022-09-03T12:56:02.006Z,18.2
2022-09-03T12:57:01.909Z,18.2
2022-09-03T12:58:02.491Z,18.1
2022-09-03T12:59:01.643Z,18.1
2022-09-03T13:00:01.571Z,18.2
2022-09-03T13:01:01.381Z,18.3
2022-09-03T13:02:01.664Z,18.2
2022-09-03T13:03:02.010Z,18.2
2022-09-03T13:04:01.835Z,18.4
2022-09-03T13:05:01.747Z,18.4
2022-09-03T13:06:01.695Z,18.4
2022-09-03T13:07:01.459Z,18.5
2022-09-03T13:08:01.384Z,18.5
2022-09-03T13:09:02.300Z,18.4
2022-09-03T13:10:02.145Z,18.6
2022-09-03T13:11:02.116Z,18.7
2022-09-03T13:12:01.898Z,18.8
2022-09-03T13:13:01.809Z,18.6
2022-09-03T13:14:01.797Z,18.6
2022-09-03T13:15:01.648Z,18.6
2022-09-03T13:16:01.500Z,18.5
2022-09-03T13:17:01.723Z,18.5
2022-09-03T13:18:01.785Z,18.7
2022-09-03T13:19:01.739Z,18.8
2022-09-03T13:20:01.533Z,18.9
2022-09-03T13:21:01.512Z,18.9
2022-09-03T13:22:01.364Z,18.9
2022-09-03T13:23:02.374Z,19
2022-09-03T13:24:02.186Z,18.8
2022-09-03T13:25:02.228Z,18.8